Airfield :







YOU CAN JOIN US ON...

 
LOGIN :

Register | Disclaimer

   EN    FR    IT 

 









Legend :    VFR   Marginal VFR   IFR   Intensive IFR   Very Intensive IFR
Visi :
Ceiling :
>= 8 km
>= 3000ft
5 to 8 km
1000 to 3000 ft
1500m to 5 km
500 to 1000 ft
800 to 1500m
200 to 500 ft
< 800m
< 200 ft
Symbols :   Thunderstorms  Fog  Heavy snow  Heavy precipitations  Wind > 20 kt







- Airport Elevation : 160 ft
- IATA code : YYG


CYYG - Charlottetown

CURRENT METAR :
  • 211000Z 36010G18KT 15SM FEW040 SCT080 BKN260 14/10 A2994 RMK SC1AC2CI3 SLP141

EXPIRED METARs :
  • 210900Z 35011G18KT 15SM SCT060 BKN080 14/12 A2992 RMK SC3AC3 SLP133 DENSITY ALT 200FT
  • 210800Z 33013G18KT 15SM SCT055 OVC077 16/13 A2989 RMK SC3AC5 SLP122 DENSITY ALT 400FT

TAF TAF CYYG
Valid from the 21 at 06:00 until the 21 at 18:00 UTC


210538Z 2106/2118 33007KT P6SM FEW020 BKN060 OVC150
TEMPO 2106/2112 5SM -RA BR BKN020 OVC060
FM211200 01012G22KT P6SM FEW020 RMK NXT FCST BY 211200Z
No reported NOTAMs for that airfield.



MET'MAP, your aeronautical weather chart ! - Copyright ORBIFLY December 2007 - Disclaimer

ORBIFLY MET'MAP TEAM :

Programming & Development : Alexandra Zaïnal
Concept & Development : Baudouin d'Aumeries
Co-Development & Prog : Marc-Olivier Méhu
Technical & hardware support : Manuel Goepfert

Contact : metmap@orbifly.com




SOURCES & CREDITS :

   NOAA